EmailTwitter


Surface observations / United Kingdom / EGUB (03658)

Regions: Quebec | Canada | USA | Europe | France | UK | Elsewhere
Station
Display
Info & Location for EGUB (03658) | Help decoding METAR

Weather Conditions observed on 2019/01/20 at 07:50 UTC at BENSON RAF, UK (EGUB)

Temperature: -3.0 Celsius.

Dewpoint: -3.0 Celsius.

Relative Humidity: 100%

Winds: North at 4 km/h or 2 knots.

Mean Sea level Pressure: 101.50 kilopascals.

Coded METAR:

EGUB 200750Z AUTO 36002KT 4200 // BKN012/// M03/M03 Q1015=